createdAt,value
2017-09-25T00:00:18.494Z,91.70
2017-09-25T00:02:45.947Z,91.30
2017-09-25T00:05:13.435Z,91.30
2017-09-25T00:07:40.863Z,91.40
2017-09-25T00:10:08.326Z,91.30
2017-09-25T00:12:35.773Z,91.30
2017-09-25T00:15:03.235Z,91.20
2017-09-25T00:17:30.695Z,91.00
2017-09-25T00:19:58.177Z,91.10
2017-09-25T00:22:25.641Z,91.10
2017-09-25T00:24:53.100Z,91.00
2017-09-25T00:27:20.555Z,91.00
2017-09-25T00:29:48.023Z,91.00
2017-09-25T00:32:15.478Z,90.70
2017-09-25T00:34:42.926Z,90.60
2017-09-25T00:37:10.390Z,90.60
2017-09-25T00:39:37.842Z,90.70
2017-09-25T00:42:05.310Z,90.70
2017-09-25T00:44:32.791Z,90.70
2017-09-25T00:47:00.269Z,90.90
2017-09-25T00:49:27.731Z,91.00
2017-09-25T00:51:55.214Z,90.90
2017-09-25T00:54:22.675Z,90.80
2017-09-25T00:56:50.129Z,90.90
2017-09-25T00:59:28.350Z,90.80
2017-09-25T01:05:06.766Z,90.70
2017-09-25T01:07:34.247Z,90.70
2017-09-25T01:10:01.718Z,90.70
2017-09-25T01:12:29.200Z,90.50
2017-09-25T01:14:56.642Z,90.50
2017-09-25T01:17:24.866Z,90.50
2017-09-25T01:19:52.321Z,90.50
2017-09-25T01:22:19.769Z,90.50
2017-09-25T01:24:47.230Z,90.70
2017-09-25T01:27:14.693Z,90.70
2017-09-25T01:29:42.158Z,90.70
2017-09-25T01:32:09.620Z,90.50
2017-09-25T01:34:37.070Z,90.30
2017-09-25T01:37:04.521Z,90.40
2017-09-25T01:39:31.989Z,90.50
2017-09-25T01:41:59.438Z,90.40
2017-09-25T01:44:26.915Z,90.30
2017-09-25T01:46:54.394Z,90.10
2017-09-25T01:49:22.633Z,90.00
2017-09-25T01:51:50.090Z,90.00
2017-09-25T01:54:17.558Z,90.10
2017-09-25T01:56:45.011Z,90.30
2017-09-25T01:59:12.495Z,90.30
2017-09-25T02:01:39.951Z,90.30
2017-09-25T02:04:08.165Z,90.30
2017-09-25T02:06:35.617Z,90.00
2017-09-25T02:09:03.082Z,90.00
2017-09-25T02:11:30.542Z,90.10
2017-09-25T02:13:57.994Z,90.10
2017-09-25T02:16:25.450Z,90.00
2017-09-25T02:18:52.907Z,90.00
2017-09-25T02:21:20.356Z,90.00
2017-09-25T02:23:47.802Z,89.90
2017-09-25T02:26:15.253Z,89.90
2017-09-25T02:28:42.718Z,89.70
2017-09-25T02:31:10.169Z,90.00
2017-09-25T02:33:37.622Z,89.90
2017-09-25T02:36:05.094Z,89.90
2017-09-25T02:38:32.550Z,89.90
2017-09-25T02:40:59.994Z,89.90
2017-09-25T02:43:27.449Z,90.10
2017-09-25T02:45:54.905Z,90.10
2017-09-25T02:48:22.367Z,90.50
2017-09-25T02:50:49.838Z,90.20
2017-09-25T02:53:17.290Z,90.40
2017-09-25T02:55:44.747Z,90.10
2017-09-25T02:58:12.194Z,90.00
2017-09-25T03:00:39.646Z,90.00
2017-09-25T03:03:07.099Z,90.00
2017-09-25T03:05:34.564Z,90.00
2017-09-25T03:08:02.021Z,90.00
2017-09-25T03:10:29.469Z,89.60
2017-09-25T03:12:56.937Z,89.60
2017-09-25T03:15:24.391Z,90.00
2017-09-25T03:17:51.846Z,90.10
2017-09-25T03:20:19.295Z,90.10
2017-09-25T03:22:46.754Z,90.00
2017-09-25T03:25:14.205Z,90.20
2017-09-25T03:27:41.676Z,90.10
2017-09-25T03:30:09.118Z,90.10
2017-09-25T03:32:36.854Z,90.00
2017-09-25T03:35:04.331Z,89.70
2017-09-25T03:37:32.563Z,89.40
2017-09-25T03:40:00.058Z,89.40
2017-09-25T03:42:28.293Z,89.10
2017-09-25T03:44:55.762Z,89.10
2017-09-25T03:47:23.256Z,88.50
2017-09-25T03:49:50.731Z,88.40
2017-09-25T03:52:18.190Z,88.40
2017-09-25T03:54:45.646Z,88.40
2017-09-25T03:57:13.122Z,88.10
2017-09-25T03:59:40.605Z,88.00
2017-09-25T04:02:08.071Z,88.10
2017-09-25T04:04:35.546Z,87.90
2017-09-25T04:07:03.771Z,88.20
2017-09-25T04:09:31.242Z,88.00
2017-09-25T04:11:58.717Z,88.20
2017-09-25T04:14:26.198Z,88.10
2017-09-25T04:16:54.477Z,88.10
2017-09-25T04:19:21.955Z,88.10
2017-09-25T04:21:49.397Z,88.20
2017-09-25T04:24:16.851Z,88.30
2017-09-25T04:26:44.307Z,88.20
2017-09-25T04:29:11.758Z,88.20
2017-09-25T04:31:40.040Z,88.00
2017-09-25T04:34:07.538Z,88.00
2017-09-25T04:36:35.052Z,87.80
2017-09-25T04:39:02.511Z,87.70
2017-09-25T04:41:29.979Z,87.80
2017-09-25T04:43:57.445Z,88.00
2017-09-25T04:46:24.897Z,88.00
2017-09-25T04:48:52.385Z,88.20
2017-09-25T04:51:19.867Z,88.00
2017-09-25T04:53:47.330Z,88.00
2017-09-25T04:56:14.792Z,88.10
2017-09-25T04:58:42.270Z,88.10
2017-09-25T05:01:09.762Z,88.40
2017-09-25T05:03:37.242Z,88.10
2017-09-25T05:06:04.742Z,88.30
2017-09-25T05:08:32.967Z,88.40
2017-09-25T05:11:00.454Z,87.80
2017-09-25T05:13:27.931Z,87.60
2017-09-25T05:15:55.664Z,87.80
2017-09-25T05:18:23.120Z,87.70
2017-09-25T05:20:50.607Z,87.90
2017-09-25T05:23:18.081Z,88.10
2017-09-25T05:25:45.534Z,88.20
2017-09-25T05:28:13.027Z,88.60
2017-09-25T05:30:40.509Z,88.40
2017-09-25T05:33:07.994Z,88.40
2017-09-25T05:35:35.469Z,88.30
2017-09-25T05:38:02.954Z,88.10
2017-09-25T05:40:30.457Z,88.10
2017-09-25T05:42:57.931Z,87.90
2017-09-25T05:45:25.431Z,87.70
2017-09-25T05:47:52.930Z,87.50
2017-09-25T05:50:21.208Z,87.60
2017-09-25T05:52:48.705Z,87.60
2017-09-25T05:55:16.175Z,87.80
2017-09-25T05:57:43.645Z,88.00
2017-09-25T06:00:11.129Z,88.00
2017-09-25T06:02:38.579Z,87.70
2017-09-25T06:05:06.071Z,87.40
2017-09-25T06:07:33.591Z,87.30
2017-09-25T06:10:01.865Z,87.30
2017-09-25T06:12:29.329Z,87.20
2017-09-25T06:14:56.782Z,86.90
2017-09-25T06:17:24.257Z,87.20
2017-09-25T06:19:51.734Z,87.00
2017-09-25T06:22:19.194Z,87.00
2017-09-25T06:24:46.675Z,87.00
2017-09-25T06:27:14.143Z,86.80
2017-09-25T06:29:41.609Z,86.50
2017-09-25T06:32:09.059Z,85.90
2017-09-25T06:34:36.563Z,86.00
2017-09-25T06:37:04.821Z,85.80
2017-09-25T06:39:32.337Z,85.60
2017-09-25T06:41:59.815Z,85.80
2017-09-25T06:44:27.358Z,85.80
2017-09-25T06:46:54.862Z,85.20
2017-09-25T06:49:22.400Z,85.20
2017-09-25T06:51:49.904Z,84.80
2017-09-25T06:54:17.426Z,84.50
2017-09-25T06:56:44.956Z,84.30
2017-09-25T06:59:12.448Z,83.70
2017-09-25T07:01:39.974Z,82.80
2017-09-25T07:04:07.473Z,83.00
2017-09-25T07:06:35.030Z,82.80
2017-09-25T07:09:03.356Z,82.50
2017-09-25T07:11:30.955Z,82.60
2017-09-25T07:13:59.262Z,82.30
2017-09-25T07:16:26.736Z,82.10
2017-09-25T07:18:54.193Z,82.10
2017-09-25T07:21:21.676Z,81.30
2017-09-25T07:23:49.137Z,81.70
2017-09-25T07:26:16.594Z,81.80
2017-09-25T07:28:44.074Z,81.90
2017-09-25T07:31:11.552Z,81.80
2017-09-25T07:33:39.016Z,81.70
2017-09-25T07:36:06.478Z,81.80
2017-09-25T07:38:33.943Z,81.40
2017-09-25T07:41:01.417Z,81.80
2017-09-25T07:43:28.878Z,81.10
2017-09-25T07:45:56.384Z,81.40
2017-09-25T07:48:23.859Z,81.20
2017-09-25T07:50:51.330Z,81.10
2017-09-25T07:53:18.823Z,80.90
2017-09-25T07:55:46.290Z,80.10
2017-09-25T07:58:13.782Z,80.00
2017-09-25T08:00:41.262Z,80.00
2017-09-25T08:03:08.740Z,79.60
2017-09-25T08:05:36.203Z,79.60
2017-09-25T08:08:03.702Z,79.50
2017-09-25T08:10:31.968Z,79.40
2017-09-25T08:13:00.231Z,79.80
2017-09-25T08:15:28.478Z,79.80
2017-09-25T08:17:55.945Z,80.00
2017-09-25T08:20:23.414Z,80.20
2017-09-25T08:22:50.917Z,80.30
2017-09-25T08:25:18.714Z,80.70
2017-09-25T08:27:46.185Z,80.70
2017-09-25T08:30:13.672Z,80.10
2017-09-25T08:32:41.419Z,80.50
2017-09-25T08:35:08.924Z,80.20
2017-09-25T08:37:36.396Z,79.70
2017-09-25T08:40:03.893Z,80.00
2017-09-25T08:42:31.374Z,80.20
2017-09-25T08:44:59.603Z,79.80
2017-09-25T08:47:27.067Z,79.70
2017-09-25T08:49:54.527Z,79.70
2017-09-25T08:52:22.055Z,79.60
2017-09-25T08:54:49.579Z,79.10
2017-09-25T08:57:17.814Z,79.80
2017-09-25T08:59:45.282Z,79.70
2017-09-25T09:02:13.659Z,79.50
2017-09-25T09:04:41.140Z,78.70
2017-09-25T09:07:08.624Z,79.10
2017-09-25T09:09:36.118Z,79.00
2017-09-25T09:12:03.592Z,79.30
2017-09-25T09:14:31.073Z,79.60
2017-09-25T09:16:59.322Z,79.60
2017-09-25T09:19:26.822Z,79.60
2017-09-25T09:21:54.306Z,79.20
2017-09-25T09:26:56.063Z,78.70
2017-09-25T09:29:23.607Z,78.60
2017-09-25T09:31:51.077Z,78.90
2017-09-25T09:34:18.534Z,78.70
2017-09-25T09:36:46.096Z,79.00
2017-09-25T09:39:13.634Z,78.80
2017-09-25T09:41:41.152Z,78.20
2017-09-25T09:44:08.635Z,78.10
2017-09-25T09:46:36.110Z,78.30
2017-09-25T09:49:03.628Z,78.20
2017-09-25T09:51:31.124Z,78.40
2017-09-25T09:53:59.417Z,77.00
2017-09-25T09:56:26.902Z,77.00
2017-09-25T09:58:54.710Z,77.30
2017-09-25T10:01:22.186Z,77.90
2017-09-25T10:03:49.635Z,78.20
2017-09-25T10:06:17.158Z,78.00
2017-09-25T10:08:44.726Z,77.80
2017-09-25T10:11:12.189Z,77.90
2017-09-25T10:13:39.660Z,78.20
2017-09-25T10:16:07.122Z,78.20
2017-09-25T10:18:34.600Z,77.80
2017-09-25T10:21:02.079Z,77.80
2017-09-25T10:23:30.569Z,77.40
2017-09-25T10:25:58.072Z,77.80
2017-09-25T10:28:25.552Z,77.20
2017-09-25T10:30:53.413Z,77.80
2017-09-25T10:33:20.876Z,77.90
2017-09-25T10:35:48.363Z,76.50
2017-09-25T10:38:15.842Z,77.10
2017-09-25T10:40:43.340Z,77.20
2017-09-25T10:43:10.906Z,77.40
2017-09-25T10:45:38.398Z,76.90
2017-09-25T10:48:05.902Z,76.60
2017-09-25T10:50:33.398Z,75.80
2017-09-25T10:53:00.916Z,75.20
2017-09-25T10:55:28.437Z,75.20
2017-09-25T10:57:55.941Z,74.90
2017-09-25T11:00:24.211Z,73.70
2017-09-25T11:05:17.481Z,73.00
2017-09-25T11:07:45.156Z,72.60
2017-09-25T11:10:12.667Z,72.60
2017-09-25T11:12:40.168Z,73.00
2017-09-25T11:15:07.810Z,72.80
2017-09-25T11:17:36.046Z,73.10
2017-09-25T11:20:03.570Z,73.10
2017-09-25T11:22:31.084Z,72.90
2017-09-25T11:24:59.030Z,72.60
2017-09-25T11:27:26.528Z,72.90
2017-09-25T11:29:54.014Z,72.70
2017-09-25T11:32:21.471Z,72.70
2017-09-25T11:34:48.930Z,72.30
2017-09-25T11:37:16.653Z,72.70
2017-09-25T11:39:44.140Z,72.50
2017-09-25T11:42:12.166Z,73.30
2017-09-25T11:44:39.670Z,72.70
2017-09-25T11:47:07.189Z,72.90
2017-09-25T11:49:34.690Z,72.80
2017-09-25T11:52:02.190Z,71.70
2017-09-25T11:54:29.693Z,71.50
2017-09-25T11:56:57.972Z,71.00
2017-09-25T11:59:26.257Z,71.20
2017-09-25T12:01:53.727Z,71.10
2017-09-25T12:04:21.211Z,71.70
2017-09-25T12:06:48.709Z,71.80
2017-09-25T12:09:16.977Z,70.80
2017-09-25T12:11:45.253Z,71.10
2017-09-25T12:14:12.729Z,71.10
2017-09-25T12:16:40.270Z,70.70
2017-09-25T12:19:07.737Z,70.50
2017-09-25T12:21:35.258Z,71.50
2017-09-25T12:24:02.760Z,70.20
2017-09-25T12:26:30.402Z,70.10
2017-09-25T12:28:57.994Z,71.90
2017-09-25T12:31:25.535Z,70.10
2017-09-25T12:33:53.090Z,70.20
2017-09-25T12:36:20.576Z,71.30
2017-09-25T12:38:48.110Z,71.10
2017-09-25T12:41:15.617Z,69.80
2017-09-25T12:43:43.230Z,69.70
2017-09-25T12:46:10.707Z,69.30
2017-09-25T12:48:38.559Z,69.10
2017-09-25T12:51:06.118Z,68.00
2017-09-25T12:53:33.666Z,69.40
2017-09-25T12:56:01.219Z,69.10
2017-09-25T12:58:28.682Z,67.80
2017-09-25T13:00:56.246Z,67.00
2017-09-25T13:03:23.810Z,66.80
2017-09-25T13:05:51.455Z,65.60
2017-09-25T13:08:18.939Z,65.40
2017-09-25T13:10:46.484Z,66.10
2017-09-25T13:13:14.756Z,67.50
2017-09-25T13:15:42.831Z,67.40
2017-09-25T13:18:10.397Z,68.20
2017-09-25T13:20:38.034Z,67.50
2017-09-25T13:23:05.579Z,68.20
2017-09-25T13:25:33.390Z,67.90
2017-09-25T13:28:01.856Z,68.10
2017-09-25T13:30:29.369Z,68.30
2017-09-25T13:32:56.979Z,68.10
2017-09-25T13:35:24.498Z,68.30
2017-09-25T13:40:25.980Z,68.80
2017-09-25T13:42:53.532Z,69.20
2017-09-25T13:45:21.096Z,67.50
2017-09-25T13:47:48.858Z,68.00
2017-09-25T13:50:16.330Z,70.50
2017-09-25T13:52:44.017Z,76.60
2017-09-25T13:55:11.558Z,81.00
2017-09-25T13:57:39.106Z,81.50
2017-09-25T14:02:39.552Z,82.70
2017-09-25T14:05:07.064Z,82.00
2017-09-25T14:07:34.587Z,83.40
2017-09-25T14:10:02.138Z,83.30
2017-09-25T14:12:29.655Z,84.40
2017-09-25T14:14:57.147Z,84.80
2017-09-25T14:17:24.619Z,86.00
2017-09-25T14:19:52.155Z,85.80
2017-09-25T14:22:19.625Z,86.80
2017-09-25T14:24:47.190Z,86.80
2017-09-25T14:27:14.653Z,87.30
2017-09-25T14:29:42.213Z,86.80
2017-09-25T14:32:09.736Z,86.90
2017-09-25T14:34:37.242Z,87.30
2017-09-25T14:37:04.776Z,87.20
2017-09-25T14:39:32.339Z,87.00
2017-09-25T14:41:59.871Z,86.40
2017-09-25T14:44:27.355Z,86.20
2017-09-25T14:46:56.120Z,86.40
2017-09-25T14:49:23.686Z,85.90
2017-09-25T14:51:51.155Z,85.60
2017-09-25T14:54:18.675Z,85.90
2017-09-25T14:56:46.179Z,85.00
2017-09-25T14:59:13.723Z,85.40
2017-09-25T15:01:41.270Z,84.80
2017-09-25T15:04:09.531Z,85.00
2017-09-25T15:06:37.025Z,85.00
2017-09-25T15:09:04.527Z,85.40
2017-09-25T15:11:32.035Z,85.20
2017-09-25T15:13:59.551Z,85.00
2017-09-25T15:16:27.059Z,85.00
2017-09-25T15:18:54.615Z,85.60
2017-09-25T15:21:22.189Z,85.60
2017-09-25T15:23:50.447Z,84.70
2017-09-25T15:26:18.012Z,84.70
2017-09-25T15:28:45.563Z,84.00
2017-09-25T15:31:13.105Z,84.50
2017-09-25T15:33:40.598Z,84.00
2017-09-25T15:36:09.567Z,82.50
2017-09-25T15:38:37.042Z,83.40
2017-09-25T15:41:04.595Z,83.30
2017-09-25T15:43:32.323Z,82.80
2017-09-25T15:45:59.882Z,82.60
2017-09-25T15:48:27.363Z,83.40
2017-09-25T15:50:55.643Z,82.80
2017-09-25T15:53:23.586Z,82.80
2017-09-25T15:55:51.100Z,83.00
2017-09-25T15:58:18.642Z,82.70
2017-09-25T16:00:46.185Z,83.00
2017-09-25T16:03:13.719Z,82.50
2017-09-25T16:05:41.208Z,82.40
2017-09-25T16:08:09.530Z,82.40
2017-09-25T16:10:37.049Z,82.40
2017-09-25T16:13:04.615Z,81.60
2017-09-25T16:15:32.138Z,82.10
2017-09-25T16:17:59.844Z,81.50
2017-09-25T16:20:27.474Z,81.30
2017-09-25T16:22:55.730Z,80.50
2017-09-25T16:25:23.230Z,80.60
2017-09-25T16:27:51.201Z,80.30
2017-09-25T16:30:18.727Z,79.90
2017-09-25T16:32:47.082Z,79.20
2017-09-25T16:35:14.586Z,79.20
2017-09-25T16:37:42.086Z,79.10
2017-09-25T16:40:09.819Z,79.30
2017-09-25T16:42:37.355Z,79.30
2017-09-25T16:45:04.914Z,79.70
2017-09-25T16:47:32.516Z,79.70
2017-09-25T16:50:00.028Z,80.00
2017-09-25T16:52:27.863Z,80.20
2017-09-25T16:54:55.574Z,80.00
2017-09-25T16:57:23.115Z,80.40
2017-09-25T16:59:50.676Z,80.20
2017-09-25T17:02:18.289Z,80.50
2017-09-25T17:04:45.805Z,80.40
2017-09-25T17:07:13.538Z,80.70
2017-09-25T17:09:42.025Z,81.10
2017-09-25T17:12:09.519Z,81.30
2017-09-25T17:14:37.064Z,80.50
2017-09-25T17:17:04.628Z,80.40
2017-09-25T17:19:34.023Z,80.40
2017-09-25T17:22:01.666Z,80.00
2017-09-25T17:24:29.202Z,79.90
2017-09-25T17:26:57.463Z,79.70
2017-09-25T17:29:24.986Z,79.80
2017-09-25T17:31:52.641Z,79.90
2017-09-25T17:34:20.199Z,79.80
2017-09-25T17:36:47.738Z,80.30
2017-09-25T17:39:15.409Z,80.10
2017-09-25T17:41:43.000Z,79.70
2017-09-25T17:44:11.019Z,79.60
2017-09-25T17:46:38.514Z,79.70
2017-09-25T17:49:06.054Z,79.80
2017-09-25T17:51:33.655Z,79.70
2017-09-25T17:54:02.387Z,79.60
2017-09-25T17:56:31.277Z,79.70
2017-09-25T17:59:00.186Z,79.80
2017-09-25T18:01:27.755Z,79.30
2017-09-25T18:03:55.317Z,79.40
2017-09-25T18:06:22.870Z,79.50
2017-09-25T18:08:57.277Z,79.40
2017-09-25T18:11:24.929Z,79.50
2017-09-25T18:13:52.691Z,79.50
2017-09-25T18:16:20.758Z,79.50
2017-09-25T18:18:48.251Z,79.10
2017-09-25T18:21:15.806Z,79.50
2017-09-25T18:23:43.349Z,79.60
2017-09-25T18:26:11.143Z,80.30
2017-09-25T18:28:38.687Z,80.10
2017-09-25T18:31:06.191Z,80.00
2017-09-25T18:33:33.709Z,80.00
2017-09-25T18:36:01.251Z,80.10
2017-09-25T18:38:30.521Z,80.00
2017-09-25T18:40:58.083Z,80.00
2017-09-25T18:43:25.631Z,79.90
2017-09-25T18:45:53.154Z,79.20
2017-09-25T18:48:20.717Z,79.80
2017-09-25T18:50:48.583Z,79.40
2017-09-25T18:53:16.186Z,78.90
2017-09-25T18:55:43.742Z,79.20
2017-09-25T18:58:14.781Z,79.50
2017-09-25T19:00:42.275Z,79.20
2017-09-25T19:03:09.836Z,79.20
2017-09-25T19:05:37.401Z,78.90
2017-09-25T19:08:04.963Z,79.30
2017-09-25T19:10:32.498Z,79.70
2017-09-25T19:13:00.073Z,79.90
2017-09-25T19:15:27.585Z,80.00
2017-09-25T19:17:55.079Z,80.00
2017-09-25T19:20:22.605Z,80.70
2017-09-25T19:22:50.160Z,80.80
2017-09-25T19:25:19.424Z,80.80
2017-09-25T19:27:47.355Z,81.00
2017-09-25T19:30:14.852Z,81.00
2017-09-25T19:32:42.486Z,81.00
2017-09-25T19:35:10.826Z,81.30
2017-09-25T19:37:38.367Z,81.30
2017-09-25T19:40:06.824Z,81.30
2017-09-25T19:42:47.776Z,81.30
2017-09-25T19:45:15.429Z,81.30
2017-09-25T19:48:03.826Z,81.20
2017-09-25T19:50:38.549Z,81.00
2017-09-25T19:53:10.158Z,80.70
2017-09-25T19:55:39.289Z,80.60
2017-09-25T19:58:22.015Z,80.70
2017-09-25T20:00:49.711Z,80.10
2017-09-25T20:03:17.872Z,80.60
2017-09-25T20:05:45.750Z,80.70
2017-09-25T20:08:15.819Z,80.80
2017-09-25T20:10:52.190Z,80.80
2017-09-25T20:13:19.796Z,80.50
2017-09-25T20:18:47.811Z,80.40
2017-09-25T20:21:15.593Z,80.60
2017-09-25T20:23:43.148Z,80.90
2017-09-25T20:26:10.701Z,80.90
2017-09-25T20:28:38.869Z,80.70
2017-09-25T20:31:06.647Z,81.20
2017-09-25T20:33:35.657Z,81.40
2017-09-25T20:36:08.349Z,81.10
2017-09-25T20:38:35.921Z,81.40
2017-09-25T20:41:05.583Z,81.30
2017-09-25T20:43:35.044Z,81.60
2017-09-25T20:46:02.811Z,81.80
2017-09-25T20:48:30.334Z,81.80
2017-09-25T20:50:58.010Z,81.40
2017-09-25T20:53:25.552Z,81.80
2017-09-25T20:55:53.102Z,82.00
2017-09-25T20:58:20.601Z,81.70
2017-09-25T21:00:48.419Z,81.70
2017-09-25T21:03:15.985Z,81.90
2017-09-25T21:05:43.530Z,82.00
2017-09-25T21:08:11.055Z,82.40
2017-09-25T21:10:38.644Z,82.20
2017-09-25T21:13:06.298Z,82.40
2017-09-25T21:15:33.970Z,82.50
2017-09-25T21:18:01.485Z,82.10
2017-09-25T21:20:29.114Z,82.10
2017-09-25T21:22:56.651Z,81.90
2017-09-25T21:25:24.770Z,82.00
2017-09-25T21:27:52.273Z,82.30
2017-09-25T21:30:19.785Z,82.10
2017-09-25T21:32:47.284Z,82.00
2017-09-25T21:35:15.566Z,82.20
2017-09-25T21:37:43.060Z,82.30
2017-09-25T21:40:10.602Z,82.50
2017-09-25T21:42:38.095Z,82.60
2017-09-25T21:45:05.631Z,83.10
2017-09-25T21:47:33.226Z,82.80
2017-09-25T21:50:00.719Z,82.80
2017-09-25T21:52:28.222Z,82.90
2017-09-25T21:54:55.693Z,83.10
2017-09-25T21:57:23.190Z,83.10
2017-09-25T21:59:50.662Z,83.30
2017-09-25T22:02:18.204Z,83.40
2017-09-25T22:04:45.751Z,83.80
2017-09-25T22:07:13.281Z,83.60
2017-09-25T22:09:40.805Z,83.70
2017-09-25T22:12:08.303Z,83.50
2017-09-25T22:14:35.803Z,83.20
2017-09-25T22:17:03.608Z,83.10
2017-09-25T22:19:31.115Z,83.50
2017-09-25T22:21:58.606Z,83.40
2017-09-25T22:24:26.110Z,83.30
2017-09-25T22:26:53.603Z,83.40
2017-09-25T22:29:21.886Z,83.40
2017-09-25T22:31:49.370Z,84.00
2017-09-25T22:34:16.863Z,83.30
2017-09-25T22:36:44.355Z,83.20
2017-09-25T22:39:12.637Z,83.30
2017-09-25T22:41:40.147Z,83.20
2017-09-25T22:44:15.207Z,83.50
2017-09-25T22:46:42.792Z,83.40
2017-09-25T22:49:10.743Z,83.80
2017-09-25T22:51:38.243Z,83.80
2017-09-25T22:54:05.931Z,83.80
2017-09-25T22:56:33.587Z,83.90
2017-09-25T22:59:01.863Z,83.80
2017-09-25T23:01:29.357Z,83.80
2017-09-25T23:03:56.864Z,84.10
2017-09-25T23:06:24.359Z,84.20
2017-09-25T23:08:52.658Z,84.30
2017-09-25T23:11:20.708Z,84.10
2017-09-25T23:13:48.215Z,84.00
2017-09-25T23:16:15.740Z,84.10
2017-09-25T23:18:43.199Z,83.80
2017-09-25T23:21:10.771Z,83.60
2017-09-25T23:23:38.248Z,83.80
2017-09-25T23:26:05.710Z,84.10
2017-09-25T23:28:33.176Z,83.90
2017-09-25T23:31:03.218Z,84.40
2017-09-25T23:33:30.681Z,83.80
2017-09-25T23:35:58.157Z,83.60
2017-09-25T23:38:25.619Z,84.00
2017-09-25T23:40:53.075Z,83.70
2017-09-25T23:43:20.539Z,83.80
2017-09-25T23:45:47.994Z,84.00
2017-09-25T23:48:15.445Z,83.80
2017-09-25T23:50:42.906Z,83.80
2017-09-25T23:53:10.363Z,84.20
2017-09-25T23:55:37.822Z,84.30
2017-09-25T23:58:05.281Z,84.10
